Kankakee, Illinois
Current Conditions -  °F | °C
As of 9:15 AM on Sunday 21 Dec 2014 (Local Time) from KIKK Reporting Station
Overcast Overcast  
Wind Chill: 25°   Ceiling: 3900
Heat Index: 32°   Visibility: 7mi
Dew Point: 28°   Wind: 8mph
Humidity: 86%   Direction: 150°SSE
Pressure: 30.24"   Gusts: NA
Location:  41.12°N, 87.86°W
Report Text: KIKK 211515Z AUTO 15007KT 7SM SCT032 OVC039 00/M02 A3024 RMK AO2 T00011020
Loading
Personal Weather Stations






























Interactive Weather Map New forecast layout! Learn more

10-Day Weather Forecast

Advertisements
Track Severe Weather on mobile